Time;durP1;ratioP1;P1;durP2;ratioP2;P2;SDS_P1;SDS_P2;PMS_P1;PMS_P2;Temp;Humidity;BMP_temperature;BMP_pressure;BME280_temperature;BME280_humidity;BME280_pressure;Samples;Min_cycle;Max_cycle;Signal;HPM_P1;HPM_P2
2023/01/28 13:35:32;;;;;;;14.40;8.95;;;6.50;99.90;;;;;;5097767;27;20459;-85
2023/01/28 13:38:18;;;;;;;11.05;7.22;;;;;;;;;;5077513;28;20043;-83
2023/01/28 13:41:05;;;;;;;10.38;7.03;;;;;;;;;;5089383;28;20035;-87
2023/01/28 13:43:50;;;;;;;12.77;7.28;;;;;;;;;;5088739;28;20159;-83
2023/01/28 13:46:37;;;;;;;15.52;7.03;;;;;;;;;;5076511;28;20503;-83
2023/01/28 13:49:39;;;;;;;12.40;7.38;;;;;;;;;;5089009;28;20035;-83
2023/01/28 13:52:27;;;;;;;11.40;7.30;;;;;;;;;;5089128;28;20089;-83
2023/01/28 13:55:12;;;;;;;15.60;8.23;;;;;;;;;;5088056;28;20044;-83
2023/01/28 13:58:28;;;;;;;12.75;7.03;;;5.50;99.90;;;;;;5088437;28;20082;-83
2023/01/28 14:01:19;;;;;;;10.52;6.30;;;5.90;99.90;;;;;;5086998;28;20483;-84
2023/01/28 14:04:28;;;;;;;11.52;6.32;;;5.50;99.90;;;;;;5088402;28;20038;-83
2023/01/28 14:07:30;;;;;;;11.48;7.30;;;5.50;99.90;;;;;;5077251;28;20039;-83
2023/01/28 14:10:33;;;;;;;14.70;6.90;;;5.50;99.90;;;;;;5074026;28;20063;-83
2023/01/28 14:13:47;;;;;;;14.18;6.47;;;5.40;99.90;;;;;;5087471;28;20034;-83
2023/01/28 14:16:51;;;;;;;12.82;6.60;;;5.40;99.90;;;;;;5067626;28;20063;-83
2023/01/28 14:19:37;;;;;;;11.88;6.38;;;5.40;99.90;;;;;;5089317;28;20075;-83
2023/01/28 14:22:22;;;;;;;12.38;6.47;;;;;;;;;;5088311;28;20047;-83
2023/01/28 14:25:13;;;;;;;12.20;6.57;;;4.60;99.90;;;;;;5073854;28;20042;-83
2023/01/28 14:27:58;;;;;;;11.98;6.68;;;;;;;;;;5088837;28;20028;-83
2023/01/28 14:30:50;;;;;;;13.18;5.97;;;5.30;99.90;;;;;;5087870;28;20074;-83
2023/01/28 14:33:35;;;;;;;11.77;6.07;;;;;;;;;;5079690;28;20436;-83
2023/01/28 14:36:20;;;;;;;10.73;5.72;;;;;;;;;;5047791;28;20153;-83
2023/01/28 14:39:11;;;;;;;13.82;5.85;;;5.30;99.90;;;;;;5085684;28;20034;-83
2023/01/28 14:42:01;;;;;;;13.15;6.65;;;5.30;99.90;;;;;;5067487;28;20170;-83
2023/01/28 14:44:49;;;;;;;10.57;5.78;;;5.20;99.90;;;;;;5063628;28;20032;-83
2023/01/28 14:47:42;;;;;;;11.63;5.55;;;5.10;99.90;;;;;;5039668;28;20516;-83
2023/01/28 14:50:48;;;;;;;10.27;5.55;;;5.20;99.90;;;;;;5054584;28;20035;-83
2023/01/28 14:53:44;;;;;;;9.15;5.43;;;5.10;99.90;;;;;;5042463;28;20432;-83
2023/01/28 14:56:54;;;;;;;11.85;6.22;;;5.10;99.90;;;;;;5053174;28;20090;-83
2023/01/28 14:59:44;;;;;;;10.93;6.50;;;5.10;99.90;;;;;;5053371;28;20031;-83
2023/01/28 15:02:30;;;;;;;10.05;6.20;;;5.00;99.90;;;;;;5054374;28;20079;-82
2023/01/28 15:05:26;;;;;;;8.80;5.35;;;5.00;99.90;;;;;;5040707;28;20043;-89
2023/01/28 15:08:23;;;;;;;9.95;5.47;;;;;;;;;;5053562;28;20447;-83
2023/01/28 15:11:12;;;;;;;9.30;5.95;;;5.00;99.90;;;;;;5039605;28;20091;-83
2023/01/28 15:13:58;;;;;;;11.77;5.75;;;;;;;;;;5056683;28;20125;-83
2023/01/28 15:16:47;;;;;;;12.20;5.90;;;;;;;;;;5053531;28;20036;-83
2023/01/28 15:19:36;;;;;;;10.43;5.82;;;4.90;99.90;;;;;;5053014;28;20120;-83
2023/01/28 15:22:26;;;;;;;9.32;5.93;;;4.90;99.90;;;;;;5042846;28;20546;-84
2023/01/28 15:25:20;;;;;;;10.57;5.45;;;4.90;99.90;;;;;;5061045;28;20039;-83
2023/01/28 15:28:04;;;;;;;12.13;6.28;;;;;;;;;;5054407;28;20480;-84
2023/01/28 15:30:49;;;;;;;14.52;6.50;;;;;;;;;;5053658;28;20558;-85
2023/01/28 15:33:34;;;;;;;11.63;6.38;;;;;;;;;;5044470;28;20724;-84
2023/01/28 15:36:18;;;;;;;11.00;5.95;;;;;;;;;;5052970;28;20083;-88
2023/01/28 15:39:03;;;;;;;10.00;6.35;;;;;;;;;;5052753;28;20040;-84
2023/01/28 15:41:53;;;;;;;11.10;6.45;;;4.80;99.90;;;;;;5053044;28;20079;-83
2023/01/28 15:44:43;;;;;;;12.60;6.07;;;4.70;99.90;;;;;;5052407;28;20488;-83
2023/01/28 15:47:33;;;;;;;10.77;6.45;;;4.70;99.90;;;;;;5053527;28;20032;-84
2023/01/28 15:50:23;;;;;;;13.90;6.47;;;4.70;99.90;;;;;;5056666;28;20040;-83
2023/01/28 15:53:09;;;;;;;13.48;6.40;;;4.60;99.90;;;;;;5054174;28;20051;-83
2023/01/28 15:56:03;;;;;;;19.05;7.00;;;;;;;;;;5038795;28;20095;-84
2023/01/28 15:58:48;;;;;;;11.20;5.90;;;;;;;;;;5053620;28;20032;-83
2023/01/28 16:01:32;;;;;;;15.47;7.50;;;;;;;;;;5051850;28;20036;-83
2023/01/28 16:04:26;;;;;;;11.52;6.22;;;4.50;99.90;;;;;;5052626;28;20040;-83
2023/01/28 16:07:10;;;;;;;16.35;6.53;;;;;;;;;;5053539;28;20480;-83
2023/01/28 16:09:57;;;;;;;10.27;5.18;;;4.40;99.90;;;;;;5038415;28;20087;-84
2023/01/28 16:12:50;;;;;;;16.25;6.40;;;;;;;;;;5040549;28;20064;-84
2023/01/28 16:15:37;;;;;;;9.90;5.63;;;;;;;;;;5040400;28;20547;-84
2023/01/28 16:18:21;;;;;;;14.43;6.55;;;;;;;;;;5038505;28;20091;-83
2023/01/28 16:21:11;;;;;;;11.97;6.43;;;4.40;99.90;;;;;;5052344;28;20058;-85
2023/01/28 16:24:02;;;;;;;12.30;6.00;;;4.40;99.90;;;;;;5050421;28;20044;-85
2023/01/28 16:26:58;;;;;;;13.85;6.15;;;4.40;99.90;;;;;;5045336;28;20167;-88
2023/01/28 16:29:43;;;;;;;13.17;5.67;;;;;;;;;;5065271;28;20102;-86
2023/01/28 16:32:38;;;;;;;13.15;6.47;;;4.30;99.90;;;;;;5052738;28;20036;-93
2023/01/28 16:35:28;;;;;;;12.17;6.33;;;4.30;99.90;;;;;;5058438;28;20389;-87
2023/01/28 16:38:15;;;;;;;14.13;6.63;;;;;;;;;;5060511;28;20814;-86
2023/01/28 16:41:00;;;;;;;16.00;6.82;;;;;;;;;;5071448;28;20492;-88
2023/01/28 16:43:45;;;;;;;13.10;6.43;;;;;;;;;;5065337;28;20071;-87
2023/01/28 16:46:30;;;;;;;13.93;6.97;;;;;;;;;;5069293;28;20107;-92
2023/01/28 16:49:14;;;;;;;12.18;6.32;;;;;;;;;;5057610;28;20071;-87
2023/01/28 16:52:00;;;;;;;12.50;7.17;;;4.20;99.90;;;;;;5069394;28;20055;-86
2023/01/28 16:54:45;;;;;;;11.70;6.83;;;;;;;;;;5071576;28;20423;-86
2023/01/28 16:57:34;;;;;;;13.00;6.35;;;4.20;99.90;;;;;;5071781;28;20350;-87
2023/01/28 17:00:21;;;;;;;10.05;4.88;;;4.20;99.90;;;;;;5070687;28;20160;-87
2023/01/28 17:03:06;;;;;;;11.53;6.40;;;;;;;;;;5064904;28;20035;-87
2023/01/28 17:05:51;;;;;;;14.05;6.57;;;;;;;;;;5065325;28;20324;-87
2023/01/28 17:08:36;;;;;;;12.52;6.03;;;;;;;;;;5064535;28;20073;-85
2023/01/28 17:11:20;;;;;;;9.88;6.05;;;;;;;;;;5053943;28;20047;-84
2023/01/28 17:14:04;;;;;;;12.68;6.68;;;;;;;;;;5071564;28;20048;-85
2023/01/28 17:16:49;;;;;;;13.43;5.50;;;;;;;;;;5070982;28;20089;-84
2023/01/28 17:19:33;;;;;;;17.40;6.13;;;;;;;;;;5071529;28;20575;-89
2023/01/28 17:22:18;;;;;;;11.68;6.05;;;;;;;;;;5057311;28;20388;-84
2023/01/28 17:25:02;;;;;;;15.37;6.57;;;;;;;;;;5062868;28;20091;-86
2023/01/28 17:27:49;;;;;;;12.80;6.33;;;4.20;99.90;;;;;;5063810;28;20111;-84
2023/01/28 17:30:36;;;;;;;9.90;5.70;;;4.20;99.90;;;;;;5058653;28;20044;-85
2023/01/28 17:33:21;;;;;;;15.37;5.67;;;;;;;;;;5057232;28;20060;-84
2023/01/28 17:36:06;;;;;;;12.50;5.60;;;;;;;;;;5091675;28;20368;-85
2023/01/28 17:38:51;;;;;;;14.77;6.97;;;;;;;;;;5062895;28;20040;-85
2023/01/28 17:41:36;;;;;;;14.00;6.68;;;;;;;;;;5080902;28;20027;-84
2023/01/28 17:44:21;;;;;;;12.43;6.05;;;;;;;;;;5062815;28;20484;-84
2023/01/28 17:47:05;;;;;;;11.52;6.65;;;;;;;;;;5090458;28;20166;-85
2023/01/28 17:49:50;;;;;;;16.05;6.95;;;;;;;;;;5062849;28;20077;-85
2023/01/28 17:52:34;;;;;;;14.27;6.07;;;;;;;;;;5077045;28;20078;-84
2023/01/28 17:55:19;;;;;;;13.82;6.50;;;;;;;;;;5079903;28;20047;-85
2023/01/28 17:58:03;;;;;;;14.55;6.50;;;;;;;;;;5089469;28;20101;-84
2023/01/28 18:00:48;;;;;;;12.47;6.20;;;;;;;;;;5074445;28;20112;-84
2023/01/28 18:03:33;;;;;;;11.60;6.13;;;;;;;;;;5090562;28;20530;-87
2023/01/28 18:06:17;;;;;;;12.47;5.77;;;;;;;;;;5057152;28;20042;-87
2023/01/28 18:09:03;;;;;;;12.27;6.15;;;;;;;;;;5075682;28;20062;-87
2023/01/28 18:11:50;;;;;;;10.00;5.90;;;;;;;;;;5082443;28;20038;-87
2023/01/28 18:14:35;;;;;;;15.23;5.90;;;;;;;;;;5083933;28;20047;-86
2023/01/28 18:17:25;;;;;;;12.83;6.33;;;;;;;;;;5067868;28;20027;-86
2023/01/28 18:20:10;;;;;;;13.88;6.72;;;4.20;99.90;;;;;;5067797;28;20043;-87
2023/01/28 18:22:54;;;;;;;11.38;5.85;;;;;;;;;;5068493;28;20078;-87
2023/01/28 18:25:39;;;;;;;10.93;5.70;;;;;;;;;;5063063;28;20031;-86
2023/01/28 18:28:24;;;;;;;10.98;6.57;;;4.00;99.90;;;;;;5080362;28;20042;-88
2023/01/28 18:31:09;;;;;;;14.57;6.67;;;;;;;;;;5066464;28;20129;-86
2023/01/28 18:33:54;;;;;;;12.03;6.93;;;;;;;;;;5070970;28;20116;-86
2023/01/28 18:36:39;;;;;;;9.85;7.18;;;;;;;;;;5079321;28;20384;-87
2023/01/28 18:39:26;;;;;;;13.70;6.23;;;4.00;99.90;;;;;;5069934;28;20031;-89
2023/01/28 18:42:12;;;;;;;24.10;10.32;;;;;;;;;;5070444;28;20077;-86
2023/01/28 18:44:56;;;;;;;21.03;10.93;;;;;;;;;;5064244;28;20047;-86
2023/01/28 18:47:41;;;;;;;19.23;9.73;;;;;;;;;;5079243;28;20034;-87
2023/01/28 18:50:25;;;;;;;34.60;17.40;;;;;;;;;;5075720;28;20027;-87
2023/01/28 18:53:10;;;;;;;25.97;16.10;;;;;;;;;;5059104;28;20039;-86
2023/01/28 18:55:55;;;;;;;20.43;11.40;;;;;;;;;;5065553;28;20078;-87
2023/01/28 18:58:46;;;;;;;25.20;16.70;;;;;;;;;;5065079;28;20031;-89
2023/01/28 19:01:34;;;;;;;26.33;19.97;;;4.00;99.90;;;;;;5062386;28;20059;-86
2023/01/28 19:04:21;;;;;;;20.87;10.57;;;;;;;;;;5085094;28;20112;-85
2023/01/28 19:07:07;;;;;;;25.60;11.23;;;;;;;;;;5063873;28;20233;-86
2023/01/28 19:09:54;;;;;;;20.20;10.43;;;;;;;;;;5088312;28;20089;-88
2023/01/28 19:12:39;;;;;;;27.47;12.70;;;;;;;;;;5055760;28;20159;-86
2023/01/28 19:15:23;;;;;;;25.20;12.83;;;;;;;;;;5062731;28;20156;-86
2023/01/28 19:18:08;;;;;;;21.77;12.20;;;;;;;;;;5075632;28;20062;-85
2023/01/28 19:20:52;;;;;;;30.87;14.97;;;;;;;;;;5075752;28;20035;-89
2023/01/28 19:23:37;;;;;;;34.90;16.50;;;;;;;;;;5067154;28;20043;-86
2023/01/28 19:26:22;;;;;;;25.20;13.63;;;;;;;;;;5086484;28;20250;-87
2023/01/28 19:29:09;;;;;;;31.23;14.88;;;4.00;99.90;;;;;;5087731;28;20054;-86
2023/01/28 19:31:54;;;;;;;31.60;14.73;;;;;;;;;;5090799;28;20093;-89
2023/01/28 19:34:38;;;;;;;33.75;14.85;;;;;;;;;;5072248;28;20103;-87
2023/01/28 19:37:23;;;;;;;26.93;12.73;;;;;;;;;;5092429;28;20073;-86
2023/01/28 19:40:08;;;;;;;30.50;14.30;;;4.00;99.90;;;;;;5072513;28;20192;-86
2023/01/28 19:42:53;;;;;;;33.23;16.70;;;;;;;;;;5046060;28;20031;-86
2023/01/28 19:45:37;;;;;;;32.10;17.30;;;;;;;;;;5075792;28;20031;-86
2023/01/28 19:48:22;;;;;;;38.80;22.23;;;;;;;;;;5067603;28;20097;-86
2023/01/28 19:51:08;;;;;;;39.77;23.50;;;4.00;99.90;;;;;;5056726;28;20502;-86
2023/01/28 19:53:54;;;;;;;41.70;19.97;;;4.00;99.90;;;;;;5072975;28;20426;-86
2023/01/28 19:56:39;;;;;;;45.20;23.87;;;;;;;;;;5077684;28;20051;-87
2023/01/28 19:59:23;;;;;;;44.00;23.45;;;;;;;;;;5077776;28;20105;-85
2023/01/28 20:02:09;;;;;;;30.80;15.80;;;4.00;99.90;;;;;;5060514;28;20100;-86
2023/01/28 20:04:54;;;;;;;40.13;20.67;;;;;;;;;;5057299;28;20082;-86
2023/01/28 20:07:41;;;;;;;29.10;15.90;;;;;;;;;;5090454;28;20105;-87
2023/01/28 20:10:28;;;;;;;35.50;16.20;;;;;;;;;;5063050;28;20031;-87
2023/01/28 20:13:16;;;;;;;24.47;15.13;;;;;;;;;;5074743;28;20055;-86
2023/01/28 20:16:07;;;;;;;28.23;13.83;;;;;;;;;;5063097;28;20169;-90
2023/01/28 20:18:52;;;;;;;27.07;13.80;;;;;;;;;;5064712;28;20089;-88
2023/01/28 20:21:37;;;;;;;28.50;12.53;;;;;;;;;;5095333;28;20051;-87
2023/01/28 20:24:25;;;;;;;23.77;10.87;;;;;;;;;;5068175;28;20081;-86
2023/01/28 20:27:12;;;;;;;22.17;11.43;;;;;;;;;;5079473;28;20081;-88
2023/01/28 20:30:00;;;;;;;21.77;10.17;;;;;;;;;;5075036;28;20503;-88
2023/01/28 20:32:44;;;;;;;18.37;9.13;;;;;;;;;;5060849;28;20035;-89
2023/01/28 20:35:37;;;;;;;18.57;10.37;;;;;;;;;;5055693;28;20133;-87
2023/01/28 20:38:24;;;;;;;26.83;13.60;;;;;;;;;;5059380;28;20039;-87
2023/01/28 20:41:11;;;;;;;22.83;11.57;;;;;;;;;;5063398;28;20055;-87
2023/01/28 20:43:56;;;;;;;19.67;11.90;;;;;;;;;;5049529;28;20043;-87
2023/01/28 20:46:40;;;;;;;16.67;11.07;;;;;;;;;;5048330;28;20028;-87
2023/01/28 20:49:25;;;;;;;17.10;10.10;;;;;;;;;;5048211;28;20090;-87
2023/01/28 20:52:15;;;;;;;13.13;8.37;;;;;;;;;;5048221;28;20120;-88
2023/01/28 20:55:09;;;;;;;;;;;;;;;;;;;;;
2023/01/28 20:57:55;;;;;;;15.80;12.70;;;;;;;;;;5048985;28;20048;-87
2023/01/28 21:00:39;;;;;;;14.60;9.00;;;;;;;;;;5048738;28;20078;-86
2023/01/28 21:03:26;;;;;;;16.43;10.03;;;;;;;;;;5047485;28;20888;-88
2023/01/28 21:06:14;;;;;;;25.73;15.27;;;;;;;;;;5029439;28;20040;-87
2023/01/28 21:09:09;;;;;;;18.80;11.00;;;;;;;;;;5035182;28;20041;-88
2023/01/28 21:11:53;;;;;;;15.47;8.60;;;;;;;;;;5049911;28;20048;-85
2023/01/28 21:14:38;;;;;;;12.53;8.13;;;;;;;;;;5046864;28;20500;-85
2023/01/28 21:17:23;;;;;;;18.67;9.00;;;;;;;;;;5041827;28;20090;-85
2023/01/28 21:20:08;;;;;;;13.47;8.77;;;4.20;99.90;;;;;;5058563;28;20428;-86
2023/01/28 21:22:53;;;;;;;15.07;7.77;;;;;;;;;;5051304;28;20040;-85
2023/01/28 21:25:37;;;;;;;9.60;5.97;;;;;;;;;;5052227;28;20492;-84
2023/01/28 21:28:22;;;;;;;14.27;6.60;;;;;;;;;;5050707;28;20036;-85
2023/01/28 21:31:22;;;;;;;17.20;7.30;;;4.10;99.90;;;;;;5051243;28;20043;-85
2023/01/28 21:34:07;;;;;;;12.47;6.97;;;;;;;;;;5053579;28;20083;-84
2023/01/28 21:36:52;;;;;;;13.00;6.90;;;;;;;;;;5070858;28;20031;-85
2023/01/28 21:39:37;;;;;;;11.57;6.13;;;;;;;;;;5070399;28;20082;-85
2023/01/28 21:42:21;;;;;;;10.70;6.20;;;;;;;;;;5070910;28;20082;-88
2023/01/28 21:45:06;;;;;;;11.47;6.07;;;4.20;99.90;;;;;;5065384;28;20503;-85
2023/01/28 21:47:51;;;;;;;11.50;5.60;;;;;;;;;;5062583;28;20027;-85
2023/01/28 21:51:34;;;;;;;13.73;6.13;;;;;;;;;;5089989;28;20085;-85
2023/01/28 21:53:41;;;;;;;11.20;6.40;;;;;;;;;;5081839;28;20142;-85
2023/01/28 21:56:26;;;;;;;10.27;6.07;;;;;;;;;;5066836;28;20118;-85
2023/01/28 21:59:26;;;;;;;10.30;5.83;;;4.00;99.90;;;;;;5079253;28;20074;-86
2023/01/28 22:02:13;;;;;;;9.13;5.77;;;4.00;99.90;;;;;;5070784;28;20495;-85
2023/01/28 22:04:57;;;;;;;12.60;6.07;;;;;;;;;;5063565;28;20039;-85
2023/01/28 22:07:42;;;;;;;14.83;6.17;;;;;;;;;;5062196;28;20055;-86
2023/01/28 22:10:26;;;;;;;15.50;6.83;;;;;;;;;;5046415;28;20039;-85
2023/01/28 22:13:10;;;;;;;13.10;6.50;;;;;;;;;;5076947;28;20035;-86
2023/01/28 22:15:55;;;;;;;10.47;6.00;;;;;;;;;;5078984;28;20098;-85
2023/01/28 22:18:39;;;;;;;11.23;5.50;;;;;;;;;;5095254;28;20097;-85
2023/01/28 22:21:24;;;;;;;10.10;5.97;;;;;;;;;;5095403;28;20038;-85
2023/01/28 22:24:13;;;;;;;10.27;5.97;;;3.90;99.90;;;;;;5080505;28;20499;-85
2023/01/28 22:26:58;;;;;;;12.10;5.88;;;;;;;;;;5080558;28;20054;-85
2023/01/28 22:29:43;;;;;;;11.40;5.93;;;;;;;;;;5088987;28;20034;-85
2023/01/28 22:32:27;;;;;;;12.73;6.30;;;;;;;;;;5082497;28;20082;-85
2023/01/28 22:35:12;;;;;;;9.50;6.23;;;;;;;;;;5095617;28;20070;-86
2023/01/28 22:37:56;;;;;;;12.33;5.57;;;;;;;;;;5080449;28;20073;-85
2023/01/28 22:40:41;;;;;;;15.43;6.47;;;;;;;;;;5079620;28;20061;-85
2023/01/28 22:43:26;;;;;;;10.80;5.70;;;;;;;;;;5065652;28;20043;-85
2023/01/28 22:46:10;;;;;;;14.03;6.57;;;;;;;;;;5080040;28;20487;-85
2023/01/28 22:48:55;;;;;;;13.60;5.83;;;;;;;;;;5080202;28;20031;-85
2023/01/28 22:51:40;;;;;;;11.03;6.00;;;;;;;;;;5079474;28;20086;-85
2023/01/28 22:54:24;;;;;;;15.33;5.93;;;;;;;;;;5079107;28;20073;-88
2023/01/28 22:57:09;;;;;;;13.50;6.10;;;;;;;;;;5080085;28;20426;-85
2023/01/28 22:59:53;;;;;;;18.50;6.83;;;;;;;;;;5093977;28;20042;-85
2023/01/28 23:02:38;;;;;;;11.73;5.70;;;;;;;;;;5093208;28;20055;-85
2023/01/28 23:05:23;;;;;;;11.20;5.17;;;;;;;;;;5082945;28;20067;-85
2023/01/28 23:08:12;;;;;;;15.17;6.10;;;;;;;;;;5079667;28;20047;-85
2023/01/28 23:11:00;;;;;;;10.20;5.93;;;3.90;99.90;;;;;;5094957;28;20082;-85
2023/01/28 23:25:58;;;;;;;13.03;7.50;;;;;;;;;;5094462;28;20484;-85
2023/01/28 23:28:43;;;;;;;13.37;6.80;;;;;;;;;;5078603;28;20062;-85
2023/01/28 23:31:28;;;;;;;12.53;7.67;;;;;;;;;;5079147;28;20039;-89
2023/01/28 23:34:15;;;;;;;12.27;7.90;;;3.90;99.90;;;;;;5094102;28;20472;-85
2023/01/28 23:36:59;;;;;;;15.30;7.83;;;;;;;;;;5079362;28;20063;-85
2023/01/28 23:39:44;;;;;;;17.13;8.07;;;;;;;;;;5080873;28;20528;-84
2023/01/28 23:42:29;;;;;;;13.63;8.87;;;;;;;;;;5066480;28;20384;-89
2023/01/28 23:45:13;;;;;;;16.50;9.23;;;;;;;;;;5088763;28;20097;-85
2023/01/28 23:47:58;;;;;;;16.37;8.77;;;;;;;;;;5078902;28;20031;-85
2023/01/28 23:50:42;;;;;;;19.47;8.97;;;;;;;;;;5078494;28;20523;-85
2023/01/28 23:53:27;;;;;;;14.77;9.00;;;;;;;;;;5066811;28;20051;-85
2023/01/28 23:56:11;;;;;;;16.57;8.90;;;;;;;;;;5078576;28;20039;-87
2023/01/28 23:58:56;;;;;;;21.23;9.80;;;;;;;;;;5104259;28;20042;-85
